createdAt,value
2019-06-27T00:01:23.592Z,11.63
2019-06-27T00:03:52.162Z,11.93
2019-06-27T00:06:20.767Z,10.20
2019-06-27T00:08:49.623Z,15.20
2019-06-27T00:11:18.198Z,14.00
2019-06-27T00:13:46.823Z,11.57
2019-06-27T00:16:15.386Z,15.57
2019-06-27T00:18:43.983Z,13.00
2019-06-27T00:21:12.593Z,15.20
2019-06-27T00:23:41.158Z,13.73
2019-06-27T00:26:09.754Z,14.27
2019-06-27T00:28:38.318Z,14.50
2019-06-27T00:31:06.959Z,8.23
2019-06-27T00:33:35.528Z,12.70
2019-06-27T00:36:04.131Z,9.50
2019-06-27T00:38:32.696Z,15.53
2019-06-27T00:41:01.261Z,23.17
2019-06-27T00:43:29.952Z,15.57
2019-06-27T00:45:58.640Z,12.73
2019-06-27T00:48:27.204Z,9.20
2019-06-27T00:50:55.844Z,11.63
2019-06-27T00:53:24.655Z,14.03
2019-06-27T00:55:53.271Z,14.23
2019-06-27T00:58:21.910Z,12.13
2019-06-27T01:00:50.594Z,11.10
2019-06-27T01:03:19.292Z,14.60
2019-06-27T01:05:47.918Z,17.93
2019-06-27T01:08:19.269Z,11.13
2019-06-27T01:10:47.884Z,9.53
2019-06-27T01:13:17.611Z,11.47
2019-06-27T01:15:46.228Z,14.30
2019-06-27T01:18:14.791Z,12.07
2019-06-27T01:20:43.394Z,14.77
2019-06-27T01:23:11.958Z,15.37
2019-06-27T01:25:40.567Z,11.00
2019-06-27T01:28:09.162Z,16.77
2019-06-27T01:30:37.744Z,18.27
2019-06-27T01:33:06.332Z,10.23
2019-06-27T01:35:34.935Z,11.10
2019-06-27T01:38:03.539Z,13.57
2019-06-27T01:40:32.100Z,9.83
2019-06-27T01:43:00.753Z,10.60
2019-06-27T01:45:39.666Z,9.83
2019-06-27T01:48:08.350Z,15.90
2019-06-27T01:50:36.906Z,10.83
2019-06-27T01:53:05.518Z,11.17
2019-06-27T01:55:34.074Z,9.33
2019-06-27T01:58:02.760Z,14.20
2019-06-27T02:00:32.083Z,12.80
2019-06-27T02:03:00.919Z,13.23
2019-06-27T02:05:29.559Z,13.30
2019-06-27T02:07:58.139Z,17.93
2019-06-27T02:10:26.839Z,17.40
2019-06-27T02:12:55.398Z,13.27
2019-06-27T02:15:24.381Z,9.60
2019-06-27T02:17:53.403Z,11.13
2019-06-27T02:20:22.385Z,15.43
2019-06-27T02:22:51.266Z,16.33
2019-06-27T02:25:20.837Z,13.70
2019-06-27T02:28:03.244Z,12.37
2019-06-27T02:30:31.849Z,11.57
2019-06-27T02:33:00.559Z,12.47
2019-06-27T02:35:29.215Z,10.63
2019-06-27T02:37:57.842Z,16.10
2019-06-27T02:40:26.475Z,11.17
2019-06-27T02:42:55.132Z,14.53
2019-06-27T02:45:23.738Z,17.53
2019-06-27T02:47:52.471Z,9.13
2019-06-27T02:50:21.216Z,11.23
2019-06-27T02:52:50.075Z,10.23
2019-06-27T02:55:18.927Z,11.57
2019-06-27T02:57:47.962Z,13.43
2019-06-27T03:00:17.365Z,7.73
2019-06-27T03:02:45.949Z,13.60
2019-06-27T03:05:14.587Z,13.10
2019-06-27T03:07:43.201Z,9.47
2019-06-27T03:10:12.000Z,15.43
2019-06-27T03:12:40.602Z,17.30
2019-06-27T03:15:09.544Z,11.73
2019-06-27T03:17:38.161Z,14.30
2019-06-27T03:20:07.403Z,12.67
2019-06-27T03:22:35.973Z,15.57
2019-06-27T03:25:04.828Z,17.70
2019-06-27T03:27:33.390Z,10.47
2019-06-27T03:30:02.061Z,8.40
2019-06-27T03:32:30.644Z,10.83
2019-06-27T03:34:59.246Z,14.07
2019-06-27T03:37:27.899Z,18.47
2019-06-27T03:39:56.540Z,10.93
2019-06-27T03:42:25.151Z,13.63
2019-06-27T03:44:53.780Z,12.43
2019-06-27T03:47:22.418Z,10.37
2019-06-27T03:49:51.293Z,18.57
2019-06-27T03:52:19.892Z,11.17
2019-06-27T03:54:48.848Z,13.23
2019-06-27T03:57:17.625Z,15.10
2019-06-27T03:59:46.334Z,13.33
2019-06-27T04:02:17.311Z,11.77
2019-06-27T04:04:45.971Z,17.97
2019-06-27T04:07:14.584Z,11.97
2019-06-27T04:09:43.135Z,12.87
2019-06-27T04:12:11.730Z,11.90
2019-06-27T04:14:40.358Z,16.70
2019-06-27T04:17:09.052Z,12.80
2019-06-27T04:19:37.663Z,13.90
2019-06-27T04:22:06.229Z,15.37
2019-06-27T04:24:34.798Z,14.53
2019-06-27T04:27:03.498Z,9.87
2019-06-27T04:29:34.332Z,17.73
2019-06-27T04:32:02.458Z,16.20
2019-06-27T04:34:31.032Z,13.80
2019-06-27T04:36:59.644Z,13.87
2019-06-27T04:39:28.356Z,21.10
2019-06-27T04:41:56.936Z,16.53
2019-06-27T04:44:25.603Z,13.13
2019-06-27T04:46:54.616Z,16.80
2019-06-27T04:49:23.462Z,18.83
2019-06-27T04:51:52.047Z,22.70
2019-06-27T04:54:21.098Z,18.70
2019-06-27T04:56:50.267Z,21.63
2019-06-27T04:59:19.619Z,16.43
2019-06-27T05:01:48.683Z,26.47
2019-06-27T05:04:18.206Z,22.00
2019-06-27T05:06:47.295Z,22.03
2019-06-27T05:09:15.888Z,23.83
2019-06-27T05:11:44.454Z,22.10
2019-06-27T05:14:13.070Z,31.47
2019-06-27T05:16:41.670Z,32.07
2019-06-27T05:19:10.280Z,33.77
2019-06-27T05:21:38.850Z,28.00
2019-06-27T05:24:07.469Z,27.93
2019-06-27T05:26:36.031Z,32.97
2019-06-27T05:29:04.602Z,33.30
2019-06-27T05:31:33.259Z,25.73
2019-06-27T05:34:02.005Z,29.73
2019-06-27T05:36:30.779Z,28.03
2019-06-27T05:38:59.498Z,25.73
2019-06-27T05:41:28.172Z,25.03
2019-06-27T05:43:56.806Z,27.17
2019-06-27T05:46:25.647Z,29.17
2019-06-27T05:48:54.434Z,37.27
2019-06-27T05:51:23.331Z,34.83
2019-06-27T05:53:52.197Z,30.13
2019-06-27T05:56:21.641Z,34.43
2019-06-27T05:58:52.220Z,26.40
2019-06-27T06:01:23.439Z,37.13
2019-06-27T06:03:55.296Z,32.63
2019-06-27T06:06:24.722Z,48.07
2019-06-27T06:08:54.837Z,36.00
2019-06-27T06:11:23.708Z,36.90
2019-06-27T06:13:52.860Z,37.67
2019-06-27T06:16:21.801Z,42.03
2019-06-27T06:18:50.760Z,39.07
2019-06-27T06:21:20.048Z,35.30
2019-06-27T06:23:49.701Z,36.57
2019-06-27T06:26:18.755Z,35.13
2019-06-27T06:28:47.644Z,35.47
2019-06-27T06:31:16.405Z,35.17
2019-06-27T06:33:45.166Z,34.30
2019-06-27T06:36:13.738Z,36.70
2019-06-27T06:38:43.241Z,34.13
2019-06-27T06:41:11.818Z,35.37
2019-06-27T06:43:40.382Z,32.60
2019-06-27T06:46:09.010Z,39.03
2019-06-27T06:48:37.580Z,37.13
2019-06-27T06:51:06.258Z,37.80
2019-06-27T06:53:34.935Z,33.20
2019-06-27T06:56:03.600Z,30.00
2019-06-27T06:58:32.216Z,37.00
2019-06-27T07:01:02.579Z,37.40
2019-06-27T07:03:31.271Z,37.20
2019-06-27T07:05:59.954Z,39.80
2019-06-27T07:08:28.746Z,35.33
2019-06-27T07:10:57.501Z,37.33
2019-06-27T07:13:26.334Z,34.40
2019-06-27T07:15:55.361Z,35.03
2019-06-27T07:18:26.094Z,36.40
2019-06-27T07:20:55.001Z,38.10
2019-06-27T07:23:23.914Z,26.20
2019-06-27T07:25:53.215Z,27.67
2019-06-27T07:28:23.776Z,24.80
2019-06-27T07:30:54.354Z,31.40
2019-06-27T07:33:25.283Z,34.67
2019-06-27T07:35:54.502Z,29.03
2019-06-27T07:38:23.728Z,24.00
2019-06-27T07:40:53.726Z,26.73
2019-06-27T07:43:23.125Z,22.90
2019-06-27T07:45:53.280Z,27.17
2019-06-27T07:48:24.183Z,23.47
2019-06-27T07:50:53.471Z,22.07
2019-06-27T07:53:23.058Z,20.83
2019-06-27T07:55:52.501Z,24.97
2019-06-27T07:58:24.455Z,17.60
2019-06-27T08:00:53.792Z,21.87
2019-06-27T08:03:23.782Z,12.17
2019-06-27T08:05:52.858Z,11.60
2019-06-27T08:08:22.768Z,11.40
2019-06-27T08:10:52.970Z,10.70
2019-06-27T08:13:22.227Z,8.33
2019-06-27T08:15:51.890Z,13.33
2019-06-27T08:18:23.997Z,13.60
2019-06-27T08:20:53.645Z,10.53
2019-06-27T08:23:22.933Z,15.67
2019-06-27T08:25:53.775Z,14.30
2019-06-27T08:28:24.341Z,12.00
2019-06-27T08:30:53.370Z,13.90
2019-06-27T08:33:23.797Z,14.60
2019-06-27T08:35:53.300Z,12.87
2019-06-27T08:38:23.534Z,17.23
2019-06-27T08:40:53.032Z,27.30
2019-06-27T08:43:22.456Z,12.60
2019-06-27T08:45:52.533Z,16.10
2019-06-27T08:48:21.560Z,11.23
2019-06-27T08:50:51.321Z,13.73
2019-06-27T08:53:20.761Z,8.23
2019-06-27T08:55:50.917Z,10.07
2019-06-27T08:58:20.152Z,6.80
2019-06-27T09:00:49.404Z,8.13
2019-06-27T09:03:18.337Z,12.30
2019-06-27T09:05:48.575Z,8.20
2019-06-27T09:08:17.992Z,5.47
2019-06-27T09:10:46.645Z,12.50
2019-06-27T09:13:15.252Z,7.77
2019-06-27T09:15:43.923Z,5.83
2019-06-27T09:18:12.505Z,8.93
2019-06-27T09:20:41.089Z,3.63
2019-06-27T09:23:09.654Z,8.93
2019-06-27T09:25:38.222Z,7.07
2019-06-27T09:28:06.936Z,9.40
2019-06-27T09:30:35.489Z,7.03
2019-06-27T09:33:04.162Z,7.20
2019-06-27T09:35:32.796Z,11.60
2019-06-27T09:38:01.484Z,5.60
2019-06-27T09:40:30.149Z,6.40
2019-06-27T09:42:58.792Z,3.10
2019-06-27T09:45:27.731Z,6.40
2019-06-27T09:47:56.438Z,12.17
2019-06-27T09:50:25.805Z,7.17
2019-06-27T09:52:54.743Z,10.53
2019-06-27T09:55:24.262Z,5.10
2019-06-27T09:57:53.275Z,5.63
2019-06-27T10:00:22.782Z,7.43
2019-06-27T10:02:51.950Z,5.90
2019-06-27T10:05:21.508Z,7.57
2019-06-27T10:07:50.481Z,5.47
2019-06-27T10:10:20.680Z,12.63
2019-06-27T10:12:49.864Z,5.50
2019-06-27T10:15:19.889Z,8.93
2019-06-27T10:17:48.620Z,8.90
2019-06-27T10:20:18.041Z,4.17
2019-06-27T10:22:47.079Z,7.10
2019-06-27T10:25:15.670Z,6.83
2019-06-27T10:27:44.229Z,6.30
2019-06-27T10:30:14.666Z,3.77
2019-06-27T10:32:57.856Z,9.07
2019-06-27T10:35:13.730Z,9.80
2019-06-27T10:37:42.302Z,5.03
2019-06-27T10:40:11.269Z,2.80
2019-06-27T10:42:39.883Z,10.00
2019-06-27T10:45:08.582Z,5.43
2019-06-27T10:47:37.626Z,7.60
2019-06-27T10:50:06.829Z,4.00
2019-06-27T10:52:35.430Z,4.97
2019-06-27T10:55:04.984Z,5.43
2019-06-27T10:57:33.673Z,9.53
2019-06-27T11:00:02.514Z,7.80
2019-06-27T11:02:31.122Z,5.50
2019-06-27T11:04:59.844Z,4.70
2019-06-27T11:07:28.515Z,13.00
2019-06-27T11:09:57.092Z,6.10
2019-06-27T11:12:25.788Z,3.03
2019-06-27T11:14:59.614Z,8.67
2019-06-27T11:17:26.792Z,4.07
2019-06-27T11:19:55.418Z,5.47
2019-06-27T11:22:24.064Z,4.73
2019-06-27T11:24:52.786Z,7.27
2019-06-27T11:27:21.649Z,7.47
2019-06-27T11:29:50.616Z,3.43
2019-06-27T11:32:20.354Z,5.93
2019-06-27T11:34:49.378Z,3.00
2019-06-27T11:37:18.086Z,5.63
2019-06-27T11:39:46.786Z,6.70
2019-06-27T11:42:15.390Z,4.10
2019-06-27T11:44:43.950Z,7.13
2019-06-27T11:47:12.550Z,3.00
2019-06-27T11:49:41.145Z,4.43
2019-06-27T11:52:09.721Z,5.67
2019-06-27T11:54:38.383Z,3.03
2019-06-27T11:57:07.095Z,4.17
2019-06-27T11:59:35.658Z,8.13
2019-06-27T12:02:04.342Z,21.97
2019-06-27T12:04:32.949Z,11.10
2019-06-27T12:07:01.511Z,4.20
2019-06-27T12:09:30.103Z,4.60
2019-06-27T12:11:58.842Z,4.00
2019-06-27T12:14:27.450Z,8.30
2019-06-27T12:16:56.075Z,6.37
2019-06-27T12:19:24.819Z,13.70
2019-06-27T12:21:53.408Z,5.60
2019-06-27T12:24:22.809Z,11.10
2019-06-27T12:26:51.642Z,4.20
2019-06-27T12:29:20.491Z,2.47
2019-06-27T12:31:51.783Z,4.27
2019-06-27T12:34:19.878Z,7.67
2019-06-27T12:36:48.531Z,12.57
2019-06-27T12:39:17.202Z,7.33
2019-06-27T12:41:45.727Z,5.63
2019-06-27T12:44:14.335Z,9.07
2019-06-27T12:46:42.893Z,9.43
2019-06-27T12:49:11.521Z,6.97
2019-06-27T12:51:40.111Z,4.37
2019-06-27T12:54:08.711Z,8.83
2019-06-27T12:56:37.270Z,8.70
2019-06-27T12:59:05.827Z,5.30
2019-06-27T13:01:34.426Z,6.57
2019-06-27T13:04:02.994Z,10.60
2019-06-27T13:06:31.594Z,5.00
2019-06-27T13:09:00.235Z,5.90
2019-06-27T13:11:28.933Z,4.50
2019-06-27T13:13:57.494Z,4.60
2019-06-27T13:16:26.123Z,8.50
2019-06-27T13:18:54.698Z,4.27
2019-06-27T13:21:23.416Z,5.27
2019-06-27T13:23:52.168Z,10.03
2019-06-27T13:26:20.799Z,3.80
2019-06-27T13:28:50.562Z,8.60
2019-06-27T13:31:19.471Z,6.53
2019-06-27T13:33:48.172Z,9.73
2019-06-27T13:36:16.845Z,6.40
2019-06-27T13:38:45.456Z,11.03
2019-06-27T13:41:14.010Z,6.73
2019-06-27T13:43:42.639Z,8.27
2019-06-27T13:46:11.198Z,3.47
2019-06-27T13:48:39.759Z,2.50
2019-06-27T13:51:08.411Z,5.60
2019-06-27T13:53:37.026Z,4.93
2019-06-27T13:56:05.590Z,4.30
2019-06-27T13:58:34.158Z,2.70
2019-06-27T14:01:02.849Z,5.90
2019-06-27T14:03:44.884Z,3.83
2019-06-27T14:06:01.667Z,3.93
2019-06-27T14:08:30.222Z,7.57
2019-06-27T14:10:58.966Z,6.40
2019-06-27T14:13:27.615Z,2.70
2019-06-27T14:15:56.854Z,3.87
2019-06-27T14:18:25.472Z,2.53
2019-06-27T14:20:54.093Z,2.73
2019-06-27T14:23:22.687Z,4.57
2019-06-27T14:25:51.554Z,9.03
2019-06-27T14:28:20.342Z,7.70
2019-06-27T14:30:48.959Z,8.93
2019-06-27T14:33:17.758Z,3.20
2019-06-27T14:35:46.347Z,2.93
2019-06-27T14:38:14.909Z,3.00
2019-06-27T14:40:44.494Z,5.90
2019-06-27T14:43:13.052Z,2.60
2019-06-27T14:45:41.651Z,8.20
2019-06-27T14:48:10.224Z,2.93
2019-06-27T14:50:38.810Z,5.00
2019-06-27T14:53:07.387Z,4.77
2019-06-27T14:55:36.051Z,1.83
2019-06-27T14:58:04.660Z,3.63
2019-06-27T15:00:33.290Z,16.70
2019-06-27T15:03:01.895Z,6.07
2019-06-27T15:05:33.088Z,6.23
2019-06-27T15:08:00.863Z,3.60
2019-06-27T15:10:29.438Z,4.13
2019-06-27T15:12:58.187Z,2.47
2019-06-27T15:15:26.937Z,5.63
2019-06-27T15:17:55.501Z,9.57
2019-06-27T15:20:24.239Z,7.20
2019-06-27T15:22:53.074Z,9.33
2019-06-27T15:25:21.779Z,8.33
2019-06-27T15:27:50.383Z,4.80
2019-06-27T15:30:19.777Z,6.30
2019-06-27T15:32:48.399Z,3.57
2019-06-27T15:35:17.212Z,4.90
2019-06-27T15:37:45.809Z,17.33
2019-06-27T15:40:15.045Z,3.73
2019-06-27T15:42:43.646Z,6.17
2019-06-27T15:45:13.813Z,7.50
2019-06-27T15:47:42.364Z,2.60
2019-06-27T15:50:11.755Z,5.23
2019-06-27T15:52:40.391Z,4.77
2019-06-27T15:55:12.057Z,2.73
2019-06-27T15:57:39.559Z,6.47
2019-06-27T16:00:08.821Z,8.50
2019-06-27T16:02:37.461Z,4.03
2019-06-27T16:05:06.731Z,2.57
2019-06-27T16:07:35.283Z,3.40
2019-06-27T16:10:05.968Z,3.10
2019-06-27T16:12:34.566Z,1.20
2019-06-27T16:15:04.847Z,4.57
2019-06-27T16:17:34.039Z,4.70
2019-06-27T16:20:03.077Z,3.60
2019-06-27T16:22:31.672Z,3.77
2019-06-27T16:25:00.314Z,3.83
2019-06-27T16:27:29.088Z,4.23
2019-06-27T16:29:57.708Z,4.40
2019-06-27T16:32:26.716Z,14.17
2019-06-27T16:34:55.278Z,9.03
2019-06-27T16:37:23.950Z,7.00
2019-06-27T16:39:52.714Z,9.20
2019-06-27T16:42:21.370Z,4.27
2019-06-27T16:44:49.955Z,5.53
2019-06-27T16:47:19.507Z,6.53
2019-06-27T16:49:48.050Z,8.50
2019-06-27T16:52:16.673Z,12.93
2019-06-27T16:54:45.279Z,4.03
2019-06-27T16:57:13.882Z,7.53
2019-06-27T16:59:42.478Z,5.80
2019-06-27T17:02:11.041Z,5.10
2019-06-27T17:04:39.970Z,2.70
2019-06-27T17:07:08.490Z,7.60
2019-06-27T17:09:37.091Z,7.40
2019-06-27T17:12:05.700Z,4.87
2019-06-27T17:14:34.272Z,7.00
2019-06-27T17:17:02.886Z,4.93
2019-06-27T17:19:31.451Z,5.33
2019-06-27T17:22:00.068Z,4.40
2019-06-27T17:24:28.639Z,5.87
2019-06-27T17:26:57.242Z,7.40
2019-06-27T17:29:25.993Z,6.40
2019-06-27T17:31:54.630Z,6.43
2019-06-27T17:34:23.229Z,4.87
2019-06-27T17:36:57.699Z,7.07
2019-06-27T17:39:22.579Z,5.03
2019-06-27T17:41:51.575Z,5.10
2019-06-27T17:44:23.304Z,8.63
2019-06-27T17:46:51.131Z,4.60
2019-06-27T17:49:19.825Z,6.33
2019-06-27T17:51:48.705Z,4.83
2019-06-27T17:54:17.787Z,7.70
2019-06-27T17:56:46.321Z,5.63
2019-06-27T17:59:14.925Z,5.50
2019-06-27T18:01:43.495Z,5.23
2019-06-27T18:04:12.101Z,3.63
2019-06-27T18:06:40.699Z,5.10
2019-06-27T18:09:09.290Z,5.10
2019-06-27T18:11:37.903Z,5.53
2019-06-27T18:14:06.509Z,11.10
2019-06-27T18:16:35.114Z,3.37
2019-06-27T18:19:04.531Z,8.10
2019-06-27T18:21:33.185Z,2.83
2019-06-27T18:24:01.826Z,5.10
2019-06-27T18:26:30.413Z,7.30
2019-06-27T18:28:59.061Z,4.77
2019-06-27T18:31:27.630Z,6.17
2019-06-27T18:33:56.278Z,8.60
2019-06-27T18:36:24.879Z,4.10
2019-06-27T18:38:53.459Z,9.40
2019-06-27T18:41:22.179Z,9.30
2019-06-27T18:43:50.815Z,8.37
2019-06-27T18:46:20.934Z,7.87
2019-06-27T18:48:51.914Z,7.43
2019-06-27T18:51:19.935Z,5.17
2019-06-27T18:53:48.653Z,7.80
2019-06-27T18:56:17.266Z,14.53
2019-06-27T18:58:45.862Z,3.87
2019-06-27T19:01:14.490Z,7.27
2019-06-27T19:03:43.094Z,4.97
2019-06-27T19:06:11.678Z,7.33
2019-06-27T19:08:40.291Z,10.63
2019-06-27T19:11:08.847Z,11.43
2019-06-27T19:13:37.449Z,28.17
2019-06-27T19:16:06.062Z,10.63
2019-06-27T19:18:44.310Z,4.60
2019-06-27T19:21:14.996Z,8.03
2019-06-27T19:23:51.091Z,6.20
2019-06-27T19:26:20.001Z,6.30
2019-06-27T19:28:48.918Z,5.97
2019-06-27T19:31:17.600Z,9.33
2019-06-27T19:33:46.258Z,5.70
2019-06-27T19:36:14.898Z,13.40
2019-06-27T19:38:43.497Z,4.20
2019-06-27T19:41:12.060Z,9.10
2019-06-27T19:43:40.659Z,7.93
2019-06-27T19:46:09.290Z,10.73
2019-06-27T19:48:37.897Z,6.07
2019-06-27T19:51:06.461Z,7.70
2019-06-27T19:53:35.104Z,7.07
2019-06-27T19:56:03.780Z,8.10
2019-06-27T19:58:32.458Z,5.30
2019-06-27T20:01:01.026Z,13.00
2019-06-27T20:03:29.590Z,11.33
2019-06-27T20:05:58.284Z,10.43
2019-06-27T20:08:26.868Z,8.60
2019-06-27T20:10:55.570Z,8.80
2019-06-27T20:13:24.160Z,4.63
2019-06-27T20:15:54.023Z,7.30
2019-06-27T20:18:23.027Z,13.27
2019-06-27T20:20:51.649Z,9.53
2019-06-27T20:23:20.226Z,18.80
2019-06-27T20:25:48.847Z,16.90
2019-06-27T20:28:17.406Z,6.63
2019-06-27T20:30:45.970Z,6.47
2019-06-27T20:33:14.704Z,12.87
2019-06-27T20:35:43.256Z,6.83
2019-06-27T20:38:11.917Z,5.07
2019-06-27T20:40:40.482Z,7.83
2019-06-27T20:43:09.098Z,13.00
2019-06-27T20:45:37.666Z,4.80
2019-06-27T20:48:06.423Z,14.20
2019-06-27T20:50:35.070Z,8.27
2019-06-27T20:53:03.636Z,14.53
2019-06-27T20:55:32.306Z,11.23
2019-06-27T20:58:01.143Z,13.80
2019-06-27T21:00:30.066Z,7.57
2019-06-27T21:02:58.628Z,9.17
2019-06-27T21:05:27.234Z,12.47
2019-06-27T21:07:55.815Z,7.77
2019-06-27T21:10:24.490Z,6.87
2019-06-27T21:12:53.423Z,11.87
2019-06-27T21:15:22.650Z,8.13
2019-06-27T21:17:52.260Z,6.60
2019-06-27T21:20:21.519Z,6.57
2019-06-27T21:22:50.469Z,14.23
2019-06-27T21:25:21.256Z,9.27
2019-06-27T21:27:50.559Z,13.43
2019-06-27T21:30:19.936Z,12.03
2019-06-27T21:32:48.757Z,13.87
2019-06-27T21:35:17.768Z,15.73
2019-06-27T21:37:46.348Z,7.13
2019-06-27T21:40:15.251Z,11.47
2019-06-27T21:42:43.854Z,14.77
2019-06-27T21:45:12.646Z,9.80
2019-06-27T21:47:41.255Z,7.40
2019-06-27T21:50:10.151Z,6.97
2019-06-27T21:52:38.762Z,10.00
2019-06-27T21:55:07.566Z,11.67
2019-06-27T21:57:36.126Z,6.93
2019-06-27T22:00:07.543Z,9.10
2019-06-27T22:02:36.163Z,9.23
2019-06-27T22:05:06.234Z,8.60
2019-06-27T22:07:34.792Z,7.83
2019-06-27T22:10:04.081Z,5.73
2019-06-27T22:12:34.461Z,12.57
2019-06-27T22:15:03.236Z,8.30
2019-06-27T22:17:31.954Z,4.93
2019-06-27T22:20:14.044Z,7.70
2019-06-27T22:22:30.937Z,9.20
2019-06-27T22:24:59.683Z,3.77
2019-06-27T22:27:28.363Z,7.27
2019-06-27T22:29:57.060Z,13.30
2019-06-27T22:32:25.703Z,16.63
2019-06-27T22:34:54.413Z,7.73
2019-06-27T22:37:25.419Z,10.00
2019-06-27T22:40:12.629Z,11.20
2019-06-27T22:42:59.705Z,7.10
2019-06-27T22:45:46.841Z,7.73
2019-06-27T22:48:14.758Z,7.37
2019-06-27T22:50:50.786Z,6.17
2019-06-27T22:53:25.200Z,5.77
2019-06-27T22:55:54.801Z,8.23
2019-06-27T22:58:23.711Z,6.57
2019-06-27T23:00:53.963Z,5.23
2019-06-27T23:03:23.030Z,4.17
2019-06-27T23:05:54.364Z,5.43
2019-06-27T23:08:24.355Z,7.40
2019-06-27T23:10:53.409Z,5.70
2019-06-27T23:13:22.251Z,6.40
2019-06-27T23:15:51.756Z,10.60
2019-06-27T23:18:20.908Z,12.43
2019-06-27T23:20:49.962Z,8.13
2019-06-27T23:23:19.024Z,9.17
2019-06-27T23:25:47.794Z,18.03
2019-06-27T23:28:16.504Z,10.20
2019-06-27T23:30:45.083Z,11.63
2019-06-27T23:33:13.650Z,11.43
2019-06-27T23:35:42.362Z,6.43
2019-06-27T23:38:10.929Z,5.00
2019-06-27T23:40:39.533Z,9.50
2019-06-27T23:43:08.143Z,9.40
2019-06-27T23:45:37.398Z,8.37
2019-06-27T23:48:06.104Z,6.80
2019-06-27T23:50:34.658Z,5.50
2019-06-27T23:53:03.296Z,5.33
2019-06-27T23:55:32.405Z,6.00
2019-06-27T23:58:01.073Z,5.67
